Time;durP1;ratioP1;P1;durP2;ratioP2;P2;SDS_P1;SDS_P2;PMS_P1;PMS_P2;Temp;Humidity;BMP_temperature;BMP_pressure;BME280_temperature;BME280_humidity;BME280_pressure;Samples;Min_cycle;Max_cycle;Signal;HPM_P1;HPM_P2
2021/09/06 00:01:28;;;;;;;7.07;6.15;;;;;;;15.39;61.57;96138.44;6152904;23;20159;-81
2021/09/06 00:03:54;;;;;;;7.50;5.22;;;;;;;15.42;61.65;96146.78;6127202;23;20163;-81
2021/09/06 00:06:19;;;;;;;5.72;5.22;;;;;;;15.38;61.77;96144.66;6127985;23;20173;-82
2021/09/06 00:08:44;;;;;;;7.18;5.30;;;;;;;15.41;61.83;96139.91;6128228;23;20163;-80
2021/09/06 00:11:11;;;;;;;6.13;5.15;;;;;;;15.38;61.72;96145.47;6154163;23;20218;-81
2021/09/06 00:13:40;;;;;;;5.50;5.00;;;;;;;15.38;61.94;96140.25;6127156;23;20162;-80
2021/09/06 00:16:06;;;;;;;6.30;5.38;;;;;;;15.39;61.84;96135.84;6128549;23;20163;-81
2021/09/06 00:18:32;;;;;;;6.13;5.30;;;;;;;15.29;62.15;96143.84;6128108;23;20183;-81
2021/09/06 00:20:58;;;;;;;6.10;5.35;;;;;;;15.25;62.26;96145.13;6127966;23;20234;-81
2021/09/06 00:23:25;;;;;;;5.93;5.32;;;;;;;15.16;62.80;96135.63;6152532;23;20159;-80
2021/09/06 00:25:50;;;;;;;6.38;5.15;;;;;;;15.11;62.83;96135.31;6153486;23;20253;-81
2021/09/06 00:28:15;;;;;;;6.80;5.45;;;;;;;15.17;62.68;96135.47;6128077;23;20621;-81
2021/09/06 00:30:41;;;;;;;6.82;5.03;;;;;;;15.19;62.19;96136.13;6152424;23;20159;-81
2021/09/06 00:33:07;;;;;;;7.82;5.10;;;;;;;15.13;62.23;96130.75;6128080;23;20558;-80
2021/09/06 00:35:32;;;;;;;8.65;5.25;;;;;;;15.14;62.05;96137.59;6151557;23;20225;-81
2021/09/06 00:37:57;;;;;;;6.72;5.05;;;;;;;15.11;62.29;96130.09;6127587;23;20709;-81
2021/09/06 00:40:23;;;;;;;6.70;4.85;;;;;;;15.23;61.74;96136.63;6126706;23;20163;-81
2021/09/06 00:42:48;;;;;;;6.25;5.65;;;;;;;15.18;61.79;96142.34;6152724;23;20158;-81
2021/09/06 00:45:13;;;;;;;8.00;5.65;;;;;;;15.08;62.26;96135.63;6152158;23;20176;-80
2021/09/06 00:47:39;;;;;;;7.28;5.97;;;;;;;15.04;62.92;96134.31;6152491;23;20155;-80
2021/09/06 00:50:06;;;;;;;7.00;5.55;;;;;;;14.94;62.96;96137.91;6152670;23;20175;-80
2021/09/06 00:52:36;;;;;;;9.20;5.68;;;;;;;14.89;62.88;96134.13;6152784;23;20616;-81
2021/09/06 00:55:02;;;;;;;7.35;5.18;;;;;;;14.81;63.56;96137.53;6126955;23;20197;-80
2021/09/06 00:57:28;;;;;;;6.60;5.50;;;;;;;14.78;63.86;96140.47;6153848;23;20190;-80
2021/09/06 00:59:53;;;;;;;6.13;5.28;;;;;;;14.68;64.26;96139.78;6152496;23;20155;-81
2021/09/06 01:02:19;;;;;;;7.47;5.45;;;;;;;14.66;64.48;96146.94;6128262;23;20191;-80
2021/09/06 01:04:44;;;;;;;6.70;5.30;;;;;;;14.71;64.62;96139.47;6151548;23;20642;-81
2021/09/06 01:07:09;;;;;;;5.82;5.18;;;;;;;14.66;64.64;96136.50;6153129;23;20488;-81
2021/09/06 01:09:35;;;;;;;9.23;5.72;;;;;;;14.61;65.02;96136.16;6154561;23;20176;-81
2021/09/06 01:12:00;;;;;;;6.93;6.05;;;;;;;14.60;64.98;96137.97;6155528;23;20159;-82
2021/09/06 01:14:25;;;;;;;6.82;5.70;;;;;;;14.54;64.91;96133.34;6129881;23;20179;-82
2021/09/06 01:16:51;;;;;;;6.50;5.45;;;;;;;14.48;65.69;96139.19;6129852;23;20159;-80
2021/09/06 01:19:16;;;;;;;8.23;5.90;;;;;;;14.45;65.58;96139.53;6154315;23;20489;-80
2021/09/06 01:21:41;;;;;;;6.75;5.32;;;;;;;14.43;65.85;96149.28;6129684;23;20205;-81
2021/09/06 01:24:07;;;;;;;7.00;6.07;;;;;;;14.36;65.78;96141.25;6129269;23;20207;-81
2021/09/06 01:26:32;;;;;;;6.03;5.43;;;;;;;14.36;65.81;96143.84;6156174;23;20191;-81
2021/09/06 01:28:57;;;;;;;6.05;5.45;;;;;;;14.35;66.25;96144.84;6154018;23;20147;-81
2021/09/06 01:31:23;;;;;;;6.30;5.70;;;;;;;14.35;66.38;96146.63;6129326;23;20163;-80
2021/09/06 01:33:48;;;;;;;6.88;5.38;;;;;;;14.29;66.12;96142.84;6153116;23;20607;-81
2021/09/06 01:36:13;;;;;;;6.95;5.43;;;;;;;14.34;66.06;96143.19;6153918;23;20212;-81
2021/09/06 01:38:39;;;;;;;7.55;5.50;;;;;;;14.31;66.26;96143.53;6129178;23;20241;-80
2021/09/06 01:41:04;;;;;;;6.38;5.45;;;;;;;14.27;66.25;96141.38;6127279;23;20214;-80
2021/09/06 01:43:29;;;;;;;7.88;5.85;;;;;;;14.30;66.05;96143.66;6128869;23;20163;-80
2021/09/06 01:45:55;;;;;;;8.93;5.75;;;;;;;14.30;65.83;96146.28;6153396;23;20183;-80
2021/09/06 01:48:20;;;;;;;6.38;5.78;;;;;;;14.30;65.76;96147.09;6129173;23;20522;-80
2021/09/06 01:50:45;;;;;;;6.15;5.55;;;;;;;14.29;65.81;96144.63;6129204;23;20167;-81
2021/09/06 01:53:10;;;;;;;6.43;5.10;;;;;;;14.26;65.80;96145.78;6153835;23;20158;-80
2021/09/06 01:55:36;;;;;;;7.30;6.00;;;;;;;14.27;65.83;96147.41;6128177;23;20197;-81
2021/09/06 01:58:01;;;;;;;6.10;5.50;;;;;;;14.31;65.29;96148.75;6155325;23;20187;-80
2021/09/06 02:00:26;;;;;;;6.28;5.68;;;;;;;14.28;65.25;96143.00;6153855;23;20500;-80
2021/09/06 02:02:52;;;;;;;6.23;5.30;;;;;;;14.31;64.96;96147.91;6153738;23;20609;-80
2021/09/06 02:05:17;;;;;;;7.33;5.60;;;;;;;14.33;64.79;96152.03;6128178;23;20187;-80
2021/09/06 02:07:42;;;;;;;6.50;5.80;;;;;;;14.36;64.39;96146.47;6153316;23;20155;-80
2021/09/06 02:10:08;;;;;;;6.22;5.20;;;;;;;14.48;63.62;96156.66;6153911;23;20155;-80
2021/09/06 02:12:33;;;;;;;5.70;4.88;;;;;;;14.49;63.76;96153.09;6153856;23;20159;-80
2021/09/06 02:14:59;;;;;;;5.90;5.30;;;;;;;14.48;63.64;96154.88;6154360;23;20198;-80
2021/09/06 02:17:24;;;;;;;7.38;5.60;;;;;;;14.53;64.03;96150.00;6128955;23;20254;-80
2021/09/06 02:19:49;;;;;;;7.27;6.13;;;;;;;14.56;63.53;96151.47;6153830;23;20160;-80
2021/09/06 02:22:14;;;;;;;7.85;5.93;;;;;;;14.54;63.61;96151.66;6153627;23;20159;-81
2021/09/06 02:24:40;;;;;;;6.95;5.85;;;;;;;14.56;63.91;96157.53;6152460;23;20185;-80
2021/09/06 02:27:05;;;;;;;7.50;5.80;;;;;;;14.56;63.98;96151.47;6153517;23;20182;-80
2021/09/06 02:29:30;;;;;;;6.70;5.47;;;;;;;14.57;63.79;96153.13;6153384;23;20496;-80
2021/09/06 02:31:56;;;;;;;6.10;5.45;;;;;;;14.61;63.62;96150.03;6128760;23;20499;-81
2021/09/06 02:34:21;;;;;;;7.13;5.82;;;;;;;14.65;63.43;96155.75;6152214;23;20179;-82
2021/09/06 02:36:46;;;;;;;7.03;5.63;;;;;;;14.65;63.42;96156.59;6128461;23;20169;-80
2021/09/06 02:39:12;;;;;;;6.35;5.55;;;;;;;14.55;63.61;96147.22;6151333;23;20291;-81
2021/09/06 02:41:37;;;;;;;6.45;5.78;;;;;;;14.53;63.80;96152.63;6128548;23;20164;-80
2021/09/06 02:44:02;;;;;;;6.55;5.88;;;;;;;14.50;63.87;96154.75;6152591;23;20179;-80
2021/09/06 02:46:28;;;;;;;6.43;5.63;;;;;;;14.41;64.16;96152.06;6153212;23;20722;-80
2021/09/06 02:48:53;;;;;;;8.13;5.50;;;;;;;14.34;64.63;96150.22;6128966;23;20162;-80
2021/09/06 02:51:18;;;;;;;8.97;5.70;;;;;;;14.35;64.87;96149.25;6153042;23;20154;-80
2021/09/06 02:53:44;;;;;;;6.53;5.63;;;;;;;14.28;65.21;96151.66;6152514;23;20155;-81
2021/09/06 02:56:09;;;;;;;9.60;6.00;;;;;;;14.20;65.48;96156.84;6153100;23;20647;-80
2021/09/06 02:58:34;;;;;;;5.63;5.07;;;;;;;14.10;66.21;96156.13;6153108;23;20183;-80
2021/09/06 03:01:00;;;;;;;8.47;5.73;;;;;;;14.04;65.78;96157.56;6128301;23;20266;-80
2021/09/06 03:03:25;;;;;;;6.05;5.45;;;;;;;13.98;65.93;96159.97;6153321;23;20163;-80
2021/09/06 03:05:51;;;;;;;6.37;5.50;;;;;;;13.94;66.25;96150.81;6128239;23;20226;-80
2021/09/06 03:08:16;;;;;;;6.57;5.83;;;;;;;13.91;66.24;96153.72;6153122;23;20272;-81
2021/09/06 03:10:42;;;;;;;9.53;6.47;;;;;;;13.95;66.25;96155.03;6128529;23;20627;-80
2021/09/06 03:13:07;;;;;;;7.73;5.60;;;;;;;13.96;66.32;96151.47;6128265;23;20163;-80
2021/09/06 03:15:32;;;;;;;6.70;5.90;;;;;;;13.99;66.14;96154.59;6127563;23;20214;-81
2021/09/06 03:17:58;;;;;;;6.27;5.23;;;;;;;13.98;66.01;96147.75;6127981;23;20574;-80
2021/09/06 03:20:23;;;;;;;6.83;5.47;;;;;;;13.97;66.17;96140.06;6152867;23;20243;-80
2021/09/06 03:22:48;;;;;;;7.03;5.68;;;;;;;13.94;66.07;96150.81;6152831;23;20286;-80
2021/09/06 03:25:14;;;;;;;8.70;5.90;;;;;;;13.91;66.16;96146.72;6152260;23;20171;-80
2021/09/06 03:27:40;;;;;;;5.70;5.17;;;;;;;13.96;65.99;96149.69;6152737;23;20230;-80
2021/09/06 03:30:06;;;;;;;8.20;6.07;;;;;;;13.95;65.74;96152.44;6152539;23;20201;-80
2021/09/06 03:32:32;;;;;;;6.93;6.10;;;;;;;13.95;65.82;96147.22;6152742;23;20169;-80
2021/09/06 03:34:57;;;;;;;6.17;5.30;;;;;;;13.95;65.76;96142.81;6153459;23;20175;-80
2021/09/06 03:37:22;;;;;;;7.90;5.90;;;;;;;13.93;65.88;96149.97;6127891;23;20525;-80
2021/09/06 03:39:47;;;;;;;6.20;5.60;;;;;;;13.95;65.74;96144.59;6151262;23;20155;-80
2021/09/06 03:42:13;;;;;;;6.05;5.43;;;;;;;14.00;65.41;96143.19;6128389;23;20159;-80
2021/09/06 03:44:38;;;;;;;6.33;5.73;;;;;;;13.98;64.82;96139.09;6151708;23;20175;-80
2021/09/06 03:47:03;;;;;;;6.57;5.67;;;;;;;14.07;65.05;96143.38;6152976;23;20147;-80
2021/09/06 03:49:29;;;;;;;7.73;5.80;;;;;;;14.04;64.89;96141.06;6127498;23;20174;-79
2021/09/06 03:51:54;;;;;;;8.60;5.90;;;;;;;14.01;64.99;96136.16;6152677;23;20286;-80
2021/09/06 03:54:19;;;;;;;6.80;5.50;;;;;;;14.02;64.94;96140.41;6127237;23;20191;-80
2021/09/06 03:56:45;;;;;;;8.10;6.17;;;;;;;14.00;65.25;96140.56;6127700;23;20190;-79
2021/09/06 03:59:10;;;;;;;9.07;6.20;;;;;;;14.05;64.87;96140.13;6154225;23;20180;-79
2021/09/06 04:01:35;;;;;;;7.33;5.83;;;;;;;14.13;64.80;96137.53;6152718;23;20194;-79
2021/09/06 04:04:01;;;;;;;7.17;5.27;;;;;;;14.02;65.07;96138.63;6126980;23;20190;-79
2021/09/06 04:06:26;;;;;;;7.07;6.03;;;;;;;14.14;64.62;96141.81;6152826;23;20155;-80
2021/09/06 04:08:51;;;;;;;7.57;6.20;;;;;;;14.07;64.92;96138.16;6154134;23;20537;-80
2021/09/06 04:11:17;;;;;;;7.10;5.33;;;;;;;14.03;64.96;96144.66;6127703;23;20594;-79
2021/09/06 04:13:43;;;;;;;6.53;5.83;;;;;;;14.04;64.79;96144.50;6127422;23;20166;-79
2021/09/06 04:16:09;;;;;;;7.63;6.00;;;;;;;14.07;64.79;96144.22;6154191;23;20175;-79
2021/09/06 04:18:34;;;;;;;7.97;5.83;;;;;;;14.14;64.61;96141.81;6128203;23;20186;-80
2021/09/06 04:21:00;;;;;;;6.67;5.83;;;;;;;14.10;64.84;96146.50;6152421;23;20632;-81
2021/09/06 04:23:26;;;;;;;6.70;5.63;;;;;;;14.06;64.83;96146.97;6128366;23;20525;-80
2021/09/06 04:25:51;;;;;;;8.90;5.90;;;;;;;14.06;64.98;96144.38;6127335;23;20333;-79
2021/09/06 04:28:16;;;;;;;6.80;5.63;;;;;;;14.15;64.71;96146.06;6152448;23;20170;-79
2021/09/06 04:30:42;;;;;;;7.33;6.07;;;;;;;14.10;64.68;96143.88;6152513;23;20155;-79
2021/09/06 04:33:07;;;;;;;7.67;5.70;;;;;;;14.07;64.85;96151.22;6152445;23;20585;-80
2021/09/06 04:35:32;;;;;;;6.87;5.90;;;;;;;14.04;64.75;96149.72;6151750;23;20179;-79
2021/09/06 04:37:58;;;;;;;6.93;6.13;;;;;;;14.06;65.42;96154.81;6127746;23;20175;-81
2021/09/06 04:40:23;;;;;;;6.87;5.90;;;;;;;14.01;65.05;96164.88;6150828;23;20178;-80
2021/09/06 04:42:49;;;;;;;7.57;5.90;;;;;;;14.03;64.98;96165.53;6155996;23;20155;-81
2021/09/06 04:45:14;;;;;;;6.70;5.80;;;;;;;14.03;65.18;96168.16;6154038;23;20178;-81
2021/09/06 04:47:40;;;;;;;7.83;5.97;;;;;;;14.04;65.05;96168.00;6129809;23;20163;-81
2021/09/06 04:50:05;;;;;;;6.95;6.25;;;;;;;14.03;64.93;96171.59;6129785;23;20159;-82
2021/09/06 04:52:31;;;;;;;7.30;6.47;;;;;;;13.99;65.29;96175.50;6129794;23;20169;-79
2021/09/06 04:54:56;;;;;;;9.63;6.07;;;;;;;13.97;65.38;96174.00;6128898;23;20198;-81
2021/09/06 04:57:22;;;;;;;7.80;6.10;;;;;;;13.97;65.36;96176.63;6154501;23;20182;-81
2021/09/06 04:59:47;;;;;;;6.57;5.93;;;;;;;13.96;65.50;96175.81;6156043;23;20213;-81
2021/09/06 05:02:12;;;;;;;8.90;6.63;;;;;;;13.94;66.00;96182.13;6129893;23;20163;-82
2021/09/06 05:04:38;;;;;;;6.70;6.00;;;;;;;13.98;65.80;96186.09;6129001;23;20201;-81
2021/09/06 05:07:04;;;;;;;6.63;5.63;;;;;;;14.07;65.55;96193.81;6154741;23;20606;-82
2021/09/06 05:09:29;;;;;;;7.93;6.50;;;;;;;14.07;66.08;96190.41;6129829;23;20166;-81
2021/09/06 05:11:54;;;;;;;6.67;5.93;;;;;;;14.04;66.20;96188.88;6130075;23;20159;-78
2021/09/06 05:14:19;;;;;;;9.37;5.63;;;;;;;14.04;66.25;96198.53;6153330;23;20179;-82
2021/09/06 05:16:45;;;;;;;7.50;6.53;;;;;;;14.02;66.31;96193.44;6130064;23;20163;-81
2021/09/06 05:19:10;;;;;;;8.03;5.90;;;;;;;14.04;66.07;96203.75;6131288;23;20633;-79
2021/09/06 05:21:35;;;;;;;8.33;6.00;;;;;;;14.08;66.11;96189.41;6130602;23;20186;-79
2021/09/06 05:24:02;;;;;;;8.80;6.33;;;;;;;14.16;65.53;96198.13;6128990;23;20186;-80
2021/09/06 05:26:28;;;;;;;7.03;6.20;;;;;;;14.23;65.21;96203.56;6155924;23;20159;-82
2021/09/06 05:28:54;;;;;;;7.13;6.43;;;;;;;14.31;65.29;96202.78;6154716;23;20649;-81
2021/09/06 05:31:19;;;;;;;7.35;6.20;;;;;;;14.33;65.33;96209.50;6154059;23;20155;-80
2021/09/06 05:33:44;;;;;;;7.80;6.00;;;;;;;14.39;65.18;96208.03;6151400;23;20254;-83
2021/09/06 05:36:13;;;;;;;7.03;5.87;;;;;;;14.44;65.05;96208.41;6129088;23;20245;-82
2021/09/06 05:38:41;;;;;;;7.47;6.40;;;;;;;14.47;65.18;96209.91;6155440;23;20175;-86
2021/09/06 05:41:07;;;;;;;8.20;5.80;;;;;;;14.55;65.10;96223.03;6130530;23;20172;-84
2021/09/06 05:43:33;;;;;;;6.27;5.77;;;;;;;14.57;65.19;96214.03;6129725;23;20523;-84
2021/09/06 05:45:58;;;;;;;7.17;6.30;;;;;;;14.62;64.89;96229.28;6129877;23;20175;-81
2021/09/06 05:48:23;;;;;;;7.07;6.10;;;;;;;14.70;64.64;96211.03;6128595;23;20160;-80
2021/09/06 05:50:49;;;;;;;6.97;6.00;;;;;;;14.78;64.51;96218.09;6154147;23;20155;-81
2021/09/06 05:53:15;;;;;;;7.10;6.15;;;;;;;14.86;64.58;96221.56;6153971;23;20178;-80
2021/09/06 05:55:41;;;;;;;7.53;6.10;;;;;;;14.93;63.89;96222.56;6155484;23;20217;-80
2021/09/06 05:58:07;;;;;;;8.23;6.18;;;;;;;15.08;63.67;96224.56;6163062;23;20520;-81
2021/09/06 06:00:32;;;;;;;6.50;5.80;;;;;;;15.10;63.70;96230.44;6154570;23;20163;-80
2021/09/06 06:02:57;;;;;;;7.27;6.10;;;;;;;15.19;63.33;96229.47;6155545;23;20166;-80
2021/09/06 06:05:22;;;;;;;7.35;6.05;;;;;;;15.20;63.71;96229.34;6154952;23;20176;-80
2021/09/06 06:07:48;;;;;;;7.07;6.07;;;;;;;15.26;63.37;96228.69;6155376;23;20162;-81
2021/09/06 06:10:13;;;;;;;7.85;6.07;;;;;;;15.34;63.24;96234.94;6156813;23;20155;-81
2021/09/06 06:12:38;;;;;;;8.13;6.18;;;;;;;15.43;63.70;96244.44;6156394;23;20253;-81
2021/09/06 06:15:04;;;;;;;8.02;6.40;;;;;;;15.48;63.21;96240.38;6155072;23;20186;-81
2021/09/06 06:17:30;;;;;;;6.95;6.20;;;;;;;15.53;63.08;96243.31;6154722;23;20215;-80
2021/09/06 06:19:55;;;;;;;6.72;6.07;;;;;;;15.63;62.62;96244.97;6155495;23;20205;-80
2021/09/06 06:22:20;;;;;;;7.93;6.43;;;;;;;15.63;62.44;96244.97;6155482;23;20151;-80
2021/09/06 06:24:45;;;;;;;6.75;6.05;;;;;;;15.65;62.45;96250.91;6153881;23;20226;-80
2021/09/06 06:27:11;;;;;;;6.95;5.75;;;;;;;15.74;62.15;96247.31;6130788;23;20175;-80
2021/09/06 06:29:36;;;;;;;7.22;5.72;;;;;;;15.83;61.95;96257.63;6130369;23;20159;-80
2021/09/06 06:32:02;;;;;;;6.70;5.80;;;;;;;15.91;61.47;96246.34;6155315;23;20163;-81
2021/09/06 06:34:27;;;;;;;9.55;6.00;;;;;;;15.96;61.09;96251.88;6154715;23;20182;-81
2021/09/06 06:36:53;;;;;;;6.93;6.05;;;;;;;16.04;60.99;96253.69;6130853;23;20155;-81
2021/09/06 06:39:18;;;;;;;6.72;6.03;;;;;;;16.13;60.22;96261.38;6155169;23;20182;-82
2021/09/06 06:41:46;;;;;;;7.45;6.03;;;;;;;16.25;59.74;96263.66;6156538;23;20159;-80
2021/09/06 06:44:11;;;;;;;7.40;5.85;;;;;;;16.31;59.07;96250.72;6129653;23;20364;-81
2021/09/06 06:46:37;;;;;;;7.50;5.90;;;;;;;16.29;58.88;96263.19;6154602;23;20616;-83
2021/09/06 06:49:02;;;;;;;7.28;6.10;;;;;;;16.46;58.47;96250.88;6153718;23;20155;-81
2021/09/06 06:51:27;;;;;;;6.65;5.55;;;;;;;16.52;58.01;96255.47;6154496;23;20160;-81
2021/09/06 06:53:52;;;;;;;6.68;5.65;;;;;;;16.62;57.16;96250.84;6156239;23;20154;-81
2021/09/06 06:56:19;;;;;;;5.95;5.18;;;;;;;16.75;56.89;96252.13;6153810;23;20170;-81
2021/09/06 06:58:45;;;;;;;6.43;5.80;;;;;;;16.80;56.66;96249.84;6129137;23;20187;-81
2021/09/06 07:01:10;;;;;;;7.55;5.38;;;;;;;16.86;56.69;96249.16;6154195;23;20492;-82
2021/09/06 07:03:38;;;;;;;6.13;5.53;;;;;;;16.95;56.79;96256.00;6129862;23;20155;-81
2021/09/06 07:06:04;;;;;;;8.65;6.20;;;;;;;16.95;57.43;96259.44;6131716;23;20163;-82
2021/09/06 07:08:29;;;;;;;6.38;5.38;;;;;;;16.98;56.87;96250.44;6156800;23;20609;-81
2021/09/06 07:10:54;;;;;;;8.02;5.90;;;;;;;17.06;56.60;96254.84;6159178;23;20186;-82
2021/09/06 07:13:20;;;;;;;7.72;5.90;;;;;;;17.18;55.72;96258.69;6162127;23;20226;-81
2021/09/06 07:15:45;;;;;;;7.28;6.10;;;;;;;17.17;56.12;96263.13;6141853;23;20583;-81
2021/09/06 07:18:10;;;;;;;6.45;5.32;;;;;;;17.23;56.17;96267.72;6167437;23;20175;-82
2021/09/06 07:20:36;;;;;;;6.47;5.88;;;;;;;17.26;55.87;96269.97;6144491;23;20159;-82
2021/09/06 07:23:02;;;;;;;9.20;6.05;;;;;;;17.37;57.34;96265.34;6154763;23;20170;-82
2021/09/06 07:25:28;;;;;;;7.00;5.70;;;;;;;17.44;56.83;96264.47;6140364;23;20186;-82
2021/09/06 07:27:53;;;;;;;6.28;5.68;;;;;;;17.59;56.33;96263.75;6162398;23;20152;-79
2021/09/06 07:30:19;;;;;;;10.85;6.82;;;;;;;17.65;55.93;96271.72;6161746;23;20286;-79
2021/09/06 07:32:45;;;;;;;6.53;5.68;;;;;;;17.69;55.88;96267.78;6158198;23;20151;-79
2021/09/06 07:35:11;;;;;;;6.63;5.95;;;;;;;17.75;56.73;96274.97;6154395;23;20643;-78
2021/09/06 07:37:37;;;;;;;7.78;6.60;;;;;;;17.88;56.68;96282.28;6156206;23;20250;-78
2021/09/06 07:40:03;;;;;;;10.57;6.30;;;;;;;18.05;55.23;96283.00;6155206;23;20162;-77
2021/09/06 07:42:28;;;;;;;7.95;6.28;;;;;;;18.13;56.00;96285.56;6154682;23;20504;-78
2021/09/06 07:44:53;;;;;;;7.30;5.70;;;;;;;18.27;56.18;96281.31;6128214;23;20201;-78
2021/09/06 07:47:19;;;;;;;7.78;6.00;;;;;;;18.55;55.73;96286.81;6154031;23;20155;-78
2021/09/06 07:49:46;;;;;;;7.82;5.93;;;;;;;18.74;54.77;96283.72;6153931;23;20155;-78
2021/09/06 07:52:12;;;;;;;7.82;6.18;;;;;;;18.82;53.52;96281.00;6153648;23;20155;-78
2021/09/06 07:54:37;;;;;;;7.43;5.97;;;;;;;18.83;53.18;96290.53;6152686;23;20191;-78
2021/09/06 07:57:03;;;;;;;8.27;6.05;;;;;;;18.93;54.72;96298.97;6155238;23;20155;-78
2021/09/06 07:59:28;;;;;;;6.30;5.70;;;;;;;19.04;54.71;96300.34;6154777;23;20166;-77
2021/09/06 08:01:54;;;;;;;7.20;5.82;;;;;;;19.05;54.88;96306.41;6154264;23;20159;-77
2021/09/06 08:04:19;;;;;;;6.55;5.85;;;;;;;19.16;54.74;96308.56;6155021;23;20174;-77
2021/09/06 08:06:45;;;;;;;8.27;6.35;;;;;;;19.33;54.67;96314.47;6155815;23;20162;-78
2021/09/06 08:09:11;;;;;;;7.25;6.05;;;;;;;19.34;55.03;96319.56;6155722;23;20226;-78
2021/09/06 08:11:37;;;;;;;7.30;5.88;;;;;;;19.52;53.48;96322.63;6129590;23;20159;-77
2021/09/06 08:14:02;;;;;;;6.95;6.25;;;;;;;19.52;53.55;96329.69;6128601;23;20179;-78
2021/09/06 08:16:27;;;;;;;7.20;6.40;;;;;;;19.63;52.54;96326.66;6153901;23;20156;-77
2021/09/06 08:18:53;;;;;;;6.90;5.78;;;;;;;19.69;53.05;96336.41;6152705;23;20254;-77
2021/09/06 08:21:18;;;;;;;7.60;6.05;;;;;;;19.77;51.66;96332.88;6154490;23;20162;-79
2021/09/06 08:23:44;;;;;;;6.60;5.90;;;;;;;19.77;51.80;96325.78;6129270;23;20238;-78
2021/09/06 08:26:09;;;;;;;6.97;6.28;;;;;;;19.77;51.49;96336.31;6154096;23;20238;-78
2021/09/06 08:28:34;;;;;;;9.20;5.72;;;;;;;19.92;50.73;96333.66;6154660;23;20155;-78
2021/09/06 08:31:00;;;;;;;6.57;5.65;;;;;;;19.99;51.84;96337.19;6157264;23;20162;-78
2021/09/06 08:33:26;;;;;;;6.32;5.72;;;;;;;20.14;50.42;96341.56;6130770;23;20675;-78
2021/09/06 08:35:51;;;;;;;6.35;5.75;;;;;;;20.14;50.57;96339.75;6130404;23;20186;-79
2021/09/06 08:38:18;;;;;;;7.80;6.22;;;;;;;20.26;51.22;96340.06;6131107;23;20167;-80
2021/09/06 08:40:43;;;;;;;7.85;6.70;;;;;;;20.31;49.00;96345.59;6131897;23;20190;-80
2021/09/06 08:43:09;;;;;;;8.70;5.95;;;;;;;20.47;49.81;96341.91;6132354;23;20588;-80
2021/09/06 08:45:35;;;;;;;7.63;6.57;;;;;;;20.49;51.38;96348.63;6155077;23;20691;-80
2021/09/06 08:48:00;;;;;;;6.97;6.18;;;;;;;20.53;49.97;96347.25;6131709;23;20163;-80
2021/09/06 08:50:26;;;;;;;6.93;6.22;;;;;;;20.68;50.15;96351.66;6156403;23;20151;-80
2021/09/06 08:52:52;;;;;;;7.43;6.13;;;;;;;20.68;50.15;96351.66;6131491;23;20174;-80
2021/09/06 08:55:17;;;;;;;9.55;6.20;;;;;;;20.81;48.08;96349.09;6156176;23;20190;-81
2021/09/06 08:57:42;;;;;;;8.70;6.90;;;;;;;20.54;50.58;96348.88;6132164;23;20167;-82
2021/09/06 09:00:10;;;;;;;7.25;6.55;;;;;;;20.67;50.05;96353.44;6131898;23;20639;-82
2021/09/06 09:02:35;;;;;;;6.93;6.25;;;;;;;20.70;49.57;96352.25;6131711;23;20191;-82
2021/09/06 09:05:04;;;;;;;8.13;6.93;;;;;;;20.65;48.57;96351.00;6130032;23;20655;-81
2021/09/06 09:07:30;;;;;;;8.52;6.65;;;;;;;20.91;50.06;96358.31;6131574;23;20178;-82
2021/09/06 09:09:56;;;;;;;7.13;6.53;;;;;;;20.97;48.41;96358.56;6155640;23;20159;-81
2021/09/06 09:12:22;;;;;;;6.88;6.20;;;;;;;21.03;48.04;96357.78;6131790;23;20159;-81
2021/09/06 09:14:53;;;;;;;9.48;6.53;;;;;;;21.02;47.84;96369.34;6131294;23;20213;-82
2021/09/06 09:17:18;;;;;;;8.60;6.50;;;;;;;21.13;47.80;96368.81;6131436;23;20215;-81
2021/09/06 09:19:44;;;;;;;8.02;7.03;;;;;;;21.25;46.92;96369.09;6131318;23;20620;-81
2021/09/06 09:22:12;;;;;;;8.60;6.72;;;;;;;21.39;46.99;96374.31;6136925;23;20173;-81
2021/09/06 09:24:37;;;;;;;7.05;6.35;;;;;;;21.30;45.63;96369.38;6179776;23;20163;-83
2021/09/06 09:27:06;;;;;;;7.65;6.85;;;;;;;21.38;46.55;96375.31;6161012;23;20162;-81
2021/09/06 09:29:31;;;;;;;8.30;6.95;;;;;;;21.32;45.33;96372.63;6161236;23;20139;-81
2021/09/06 09:31:57;;;;;;;7.03;6.32;;;;;;;21.25;45.77;96374.38;6158271;23;20157;-81
2021/09/06 09:34:23;;;;;;;8.10;6.68;;;;;;;21.34;45.83;96376.69;6132709;23;20203;-81
2021/09/06 09:36:51;;;;;;;11.65;6.95;;;;;;;21.18;45.80;96367.22;6136680;23;20178;-82
2021/09/06 09:39:18;;;;;;;8.25;7.38;;;;;;;21.22;46.56;96372.94;6159302;23;20580;-79
2021/09/06 09:41:47;;;;;;;8.73;6.85;;;;;;;21.28;45.92;96376.66;6158157;23;20163;-80
2021/09/06 09:44:17;;;;;;;8.02;6.68;;;;;;;21.39;45.72;96362.91;6132342;23;20179;-78
2021/09/06 09:46:55;;;;;;;7.03;6.32;;;;;;;21.25;44.88;96372.53;6132862;23;20222;-79
2021/09/06 09:49:21;;;;;;;9.48;6.55;;;;;;;21.55;45.75;96365.22;6152943;23;20153;-80
2021/09/06 09:51:46;;;;;;;9.35;6.45;;;;;;;21.61;45.37;96364.44;6129722;23;20238;-80
2021/09/06 09:54:12;;;;;;;9.00;7.32;;;;;;;21.65;44.14;96365.69;6155372;23;20171;-80
2021/09/06 09:56:37;;;;;;;7.18;6.22;;;;;;;21.66;45.41;96367.31;6133127;23;20143;-80
2021/09/06 09:59:03;;;;;;;8.48;7.38;;;;;;;21.73;45.23;96362.03;6132540;23;20648;-80
2021/09/06 10:01:33;;;;;;;11.50;7.38;;;;;;;21.58;43.95;96366.66;6156379;23;20151;-80
2021/09/06 10:03:59;;;;;;;8.60;6.78;;;;;;;21.77;45.75;96364.09;6155264;23;20140;-80
2021/09/06 10:06:26;;;;;;;14.23;6.95;;;;;;;21.93;44.64;96367.41;6131616;23;20680;-80
2021/09/06 10:08:52;;;;;;;7.93;6.53;;;;;;;22.09;42.41;96361.00;6157171;23;20179;-79
2021/09/06 10:11:17;;;;;;;8.10;6.05;;;;;;;22.19;42.36;96364.06;6158390;23;20605;-81
2021/09/06 10:13:43;;;;;;;6.60;5.97;;;;;;;22.17;42.41;96358.94;6156505;23;20179;-81
2021/09/06 10:16:08;;;;;;;6.63;6.03;;;;;;;22.21;42.69;96354.91;6132988;23;20222;-81
2021/09/06 10:18:38;;;;;;;6.82;6.05;;;;;;;22.36;43.31;96351.28;6133607;23;20222;-81
2021/09/06 10:21:15;;;;;;;7.30;6.50;;;;;;;22.43;42.46;96349.44;6133156;23;20148;-81
2021/09/06 10:23:48;;;;;;;8.52;6.85;;;;;;;22.37;42.26;96356.38;6158369;23;20132;-81
2021/09/06 10:26:14;;;;;;;7.78;6.70;;;;;;;22.31;42.16;96350.03;6132162;23;20165;-81
2021/09/06 10:28:40;;;;;;;7.80;7.00;;;;;;;22.40;41.72;96349.84;6157496;23;20143;-81
2021/09/06 10:31:16;;;;;;;7.00;6.25;;;;;;;22.51;40.92;96350.03;6133282;23;20466;-80
2021/09/06 10:33:43;;;;;;;7.63;6.57;;;;;;;22.27;41.75;96348.00;6131646;23;20139;-81
2021/09/06 10:36:09;;;;;;;9.07;6.63;;;;;;;22.15;40.39;96350.41;6157530;23;20158;-80
2021/09/06 10:38:46;;;;;;;7.13;5.97;;;;;;;22.27;39.62;96355.94;6131851;23;20187;-80
2021/09/06 10:41:17;;;;;;;7.32;6.38;;;;;;;22.42;39.88;96347.81;6132550;23;20143;-80
2021/09/06 10:43:55;;;;;;;8.57;6.50;;;;;;;22.53;40.71;96350.69;6131036;23;20222;-79
2021/09/06 10:46:22;;;;;;;7.22;5.70;;;;;;;22.48;40.83;96331.94;6156333;23;20175;-79
2021/09/06 10:48:48;;;;;;;7.32;6.50;;;;;;;22.63;40.70;96339.69;6158177;23;20152;-79
2021/09/06 10:51:22;;;;;;;8.50;6.43;;;;;;;22.61;40.22;96339.88;6157167;23;20161;-79
2021/09/06 10:53:49;;;;;;;12.32;7.07;;;;;;;22.45;38.56;96334.19;6156528;23;20159;-79
2021/09/06 10:56:14;;;;;;;6.47;5.88;;;;;;;22.44;37.99;96336.03;6133157;23;20174;-79
2021/09/06 10:58:40;;;;;;;6.47;5.60;;;;;;;22.59;38.56;96341.09;6156717;23;20175;-80
2021/09/06 11:01:08;;;;;;;6.90;6.30;;;;;;;22.53;39.00;96332.16;6157758;23;20462;-80
2021/09/06 11:03:37;;;;;;;7.90;6.10;;;;;;;22.69;38.62;96338.03;6156488;23;20237;-80
2021/09/06 11:06:04;;;;;;;7.28;6.57;;;;;;;22.71;38.77;96334.19;6156050;23;20171;-80
2021/09/06 11:08:32;;;;;;;8.07;6.20;;;;;;;22.76;39.43;96338.84;6132057;23;20163;-82
2021/09/06 11:10:59;;;;;;;7.28;6.57;;;;;;;22.88;40.36;96338.09;6132789;23;20159;-80
2021/09/06 11:13:35;;;;;;;9.73;7.25;;;;;;;22.82;40.11;96336.22;6157665;23;20151;-81
2021/09/06 11:16:03;;;;;;;7.10;5.57;;;;;;;22.83;38.38;96337.03;6156473;23;20324;-79
2021/09/06 11:18:32;;;;;;;9.55;6.28;;;;;;;22.98;36.78;96335.00;6155512;23;20175;-79
2021/09/06 11:20:58;;;;;;;6.63;6.00;;;;;;;22.95;37.16;96339.88;6131456;23;20167;-80
2021/09/06 11:23:32;;;;;;;7.70;6.45;;;;;;;23.13;36.94;96337.41;6139936;23;20225;-80
2021/09/06 11:25:58;;;;;;;7.75;6.20;;;;;;;23.01;37.59;96341.72;6180344;23;20234;-80
2021/09/06 11:28:23;;;;;;;7.43;6.45;;;;;;;23.11;37.87;96345.56;6160476;23;20162;-79